Terminal Aerodrome Forecast
Issued by NWS

Home | Current Version | Previous Version | Text Only | Print | Product List | Glossary On
Versions: 1 2 3 4 5 6 7 8 9 10 11 12 13 14 15 16 17 18 19 20 21 22 23 24 25 26 27 28 29 30 31
049
FTUS42 KCAE 011737
TAFOGB
TAF
KOGB 011737Z 0118/0218 23017G28KT P6SM SCT030 BKN040
     FM020100 23012G22KT P6SM -TSRA OVC050CB
      TEMPO 0203/0206 2SM TSRA OVC035CB
     FM020600 27012G20KT 6SM -RA BR OVC045
     FM020800 30010G18KT P6SM OVC045
     FM021400 36012KT P6SM SCT100=

USA.gov is the U.S. government's official web portal to all federal, state and local government web resources and services.